Aeroporto :
LOGIN :

Iscrizione | Disclaimer

   EN    FR    IT 

 










Sommario :    VFR   VFR Marginale   IFR   IFR Intensivo   IFR Molto Intensivo
Visibilità : 
Base nubi : 
>= 8 km
>= 3000ft
5 / 8 km
1000 / 3000 ft
1500m / 5 km
500 / 1000 ft
800 / 1500m
200 / 500 ft
< 800m
< 200 ft
Simboli :   Temporali  Nebbia  Neve Forte  Precipitazioni Forti  Vento > 20 kt
SIGMETs :   Varie  Temporali  Ghiacco  Turbolenza  Onda orograficha  Ceneri Vulcaniche






- Altitudine del aeroporto : 268 ft
- Codice IATA : BFS


EGAA - Belfast Aldergrove

ULTIMO METAR :
  • 061050Z 25014KT 9999 -RA FEW004 SCT008 BKN030 08/08 Q0996

METARs OBSOLETI :
  • 061020Z 23011KT 8000 -RA SCT009 BKN014 BKN019 08/08 Q0996 RERA
  • 060950Z 23010KT 9999 -RA FEW007 SCT015 BKN034 08/08 Q0996
  • 060920Z 22011KT 9999 -RA SCT011 BKN017 08/08 Q0996
  • 060850Z 22010KT 9999 FEW007 SCT017 08/08 Q0996
  • 060820Z 23011KT 9999 SCT017 BKN022 09/08 Q0995

TAF TAF EGAA
Valido dal 06 a 06 ore il 07 a 06 ore UTC


060504Z 0606/0706 23012KT 9999 SCT010 BKN025
TEMPO 0606/0612 7000 SHRA BKN014 BKN020CB
PROB30
TEMPO 0606/0611 25015G25KT 4000 +SHRA BKN009
PROB30
TEMPO 0612/0703 8000 -SHRA
BECMG 0703/0706 7000 -RADZ BKN008



MetMap, La meteo Aeronautica in un colpo d'occhio ! - Copyright ORBIFLY Dicembre 2007 - Disclaimer

ORBIFLY MET'MAP TEAM :

Programmazione e sviluppo : Alexandra Zaïnal
Concezione : Baudouin d'Aumeries
Aiuto per la programmazione : Marc-Olivier Méhu
Supporto tecnico e logistico : Manuel Goepfert
Aiuto per la traduzione : Arnaldo La Scala

Contatto : metmap@orbifly.com




FONTI E CREDITI :

   NOAA